createdAt,value
2018-09-18T00:02:16.654Z,14.64
2018-09-18T00:07:14.044Z,14.68
2018-09-18T00:12:11.454Z,14.57
2018-09-18T00:17:08.840Z,14.61
2018-09-18T00:22:06.440Z,14.60
2018-09-18T00:27:03.826Z,14.73
2018-09-18T00:32:01.218Z,15.02
2018-09-18T00:36:58.831Z,15.21
2018-09-18T00:41:56.287Z,15.49
2018-09-18T00:46:53.678Z,15.71
2018-09-18T00:51:51.099Z,15.95
2018-09-18T00:56:48.474Z,16.04
2018-09-18T01:01:45.885Z,16.11
2018-09-18T01:06:43.356Z,16.03
2018-09-18T01:11:40.854Z,15.90
2018-09-18T01:16:38.227Z,15.91
2018-09-18T01:21:36.772Z,16.07
2018-09-18T01:26:35.744Z,15.80
2018-09-18T01:31:33.302Z,15.79
2018-09-18T01:36:30.691Z,15.81
2018-09-18T01:41:28.124Z,15.72
2018-09-18T01:46:25.495Z,15.73
2018-09-18T01:51:22.855Z,15.61
2018-09-18T01:56:20.232Z,15.73
2018-09-18T02:01:17.613Z,15.69
2018-09-18T02:06:15.039Z,15.75
2018-09-18T02:11:12.494Z,15.98
2018-09-18T02:16:09.899Z,15.91
2018-09-18T02:21:07.299Z,16.18
2018-09-18T02:26:04.683Z,16.18
2018-09-18T02:31:02.065Z,15.98
2018-09-18T02:35:59.451Z,16.19
2018-09-18T02:40:56.842Z,16.17
2018-09-18T02:45:54.230Z,16.13
2018-09-18T02:50:51.638Z,16.23
2018-09-18T02:55:48.996Z,16.03
2018-09-18T03:00:46.416Z,16.24
2018-09-18T03:05:43.860Z,16.09
2018-09-18T03:10:41.287Z,15.92
2018-09-18T03:15:38.667Z,15.92
2018-09-18T03:20:36.063Z,15.89
2018-09-18T03:25:33.459Z,16.10
2018-09-18T03:30:30.863Z,16.09
2018-09-18T03:35:28.272Z,15.90
2018-09-18T03:40:25.667Z,15.96
2018-09-18T03:45:23.207Z,15.92
2018-09-18T03:50:20.614Z,15.87
2018-09-18T03:55:18.020Z,15.90
2018-09-18T04:00:15.419Z,15.97
2018-09-18T04:05:12.835Z,15.97
2018-09-18T04:10:11.405Z,16.07
2018-09-18T04:15:08.867Z,16.17
2018-09-18T04:20:06.450Z,15.91
2018-09-18T04:25:03.864Z,15.94
2018-09-18T04:30:01.345Z,16.01
2018-09-18T04:34:58.771Z,16.12
2018-09-18T04:39:57.268Z,16.20
2018-09-18T04:44:54.680Z,16.36
2018-09-18T04:49:52.091Z,16.25
2018-09-18T04:54:49.560Z,16.23
2018-09-18T04:59:46.943Z,16.29
2018-09-18T05:04:44.401Z,16.03
2018-09-18T05:09:50.523Z,16.03
2018-09-18T05:14:47.955Z,16.10
2018-09-18T05:19:45.348Z,16.25
2018-09-18T05:24:42.751Z,16.66
2018-09-18T05:29:40.155Z,17.75
2018-09-18T05:34:37.553Z,17.98
2018-09-18T05:39:41.984Z,18.15
2018-09-18T05:44:40.539Z,19.61
2018-09-18T05:49:37.999Z,21.50
2018-09-18T05:54:35.406Z,23.02
2018-09-18T05:59:32.875Z,24.33
2018-09-18T06:04:31.296Z,24.83
2018-09-18T06:09:34.114Z,25.57
2018-09-18T06:14:31.539Z,25.90
2018-09-18T06:19:28.946Z,26.39
2018-09-18T06:24:26.419Z,26.33
2018-09-18T06:29:23.818Z,25.01
2018-09-18T06:34:21.233Z,24.04
2018-09-18T06:44:32.676Z,21.63
2018-09-18T06:49:30.133Z,21.53
2018-09-18T06:54:27.653Z,21.35
2018-09-18T06:59:25.060Z,21.58
2018-09-18T07:04:22.471Z,21.73
2018-09-18T07:09:29.994Z,21.86
2018-09-18T07:14:27.431Z,21.99
2018-09-18T07:19:24.911Z,22.24
2018-09-18T07:24:22.303Z,22.47
2018-09-18T07:29:19.721Z,22.62
2018-09-18T07:34:17.111Z,22.89
2018-09-18T07:39:15.910Z,23.11
2018-09-18T07:44:13.323Z,23.43
2018-09-18T07:49:10.699Z,23.75
2018-09-18T07:54:08.099Z,23.96
2018-09-18T07:59:05.548Z,24.22
2018-09-18T08:04:02.952Z,24.49
2018-09-18T08:09:00.362Z,24.72
2018-09-18T08:13:57.814Z,24.97
2018-09-18T08:18:55.315Z,24.97
2018-09-18T08:23:52.675Z,25.36
2018-09-18T08:28:50.101Z,25.79
2018-09-18T08:33:47.546Z,26.13
2018-09-18T08:38:44.999Z,26.46
2018-09-18T08:43:42.399Z,26.62
2018-09-18T08:48:45.483Z,26.96
2018-09-18T08:53:42.937Z,27.16
2018-09-18T08:58:41.200Z,27.28
2018-09-18T09:03:38.635Z,27.47
2018-09-18T09:08:36.115Z,28.03
2018-09-18T09:13:33.760Z,28.09
2018-09-18T09:18:31.296Z,28.20
2018-09-18T09:23:28.891Z,28.79
2018-09-18T09:28:26.311Z,28.97
2018-09-18T09:33:23.754Z,29.40
2018-09-18T09:38:21.175Z,29.12
2018-09-18T09:43:18.603Z,29.63
2018-09-18T09:48:16.028Z,29.99
2018-09-18T09:53:13.460Z,29.54
2018-09-18T09:58:10.853Z,30.38
2018-09-18T10:03:08.260Z,30.36
2018-09-18T10:08:05.724Z,30.75
2018-09-18T10:13:03.146Z,30.58
2018-09-18T10:18:00.732Z,30.50
2018-09-18T10:22:58.050Z,30.66
2018-09-18T10:27:55.462Z,30.83
2018-09-18T10:32:52.918Z,31.31
2018-09-18T10:37:50.365Z,31.53
2018-09-18T10:42:47.895Z,31.78
2018-09-18T10:47:45.233Z,31.84
2018-09-18T10:52:42.634Z,31.57
2018-09-18T10:57:40.106Z,31.50
2018-09-18T11:02:37.563Z,31.77
2018-09-18T11:07:35.081Z,31.65
2018-09-18T11:12:32.494Z,32.45
2018-09-18T11:17:29.875Z,31.10
2018-09-18T11:22:27.413Z,31.39
2018-09-18T11:27:24.767Z,31.91
2018-09-18T11:32:22.178Z,32.08
2018-09-18T11:37:19.603Z,32.37
2018-09-18T11:42:17.108Z,31.89
2018-09-18T11:47:14.536Z,31.56
2018-09-18T11:52:11.947Z,31.77
2018-09-18T11:57:09.438Z,31.26
2018-09-18T12:02:06.886Z,31.15
2018-09-18T12:07:04.731Z,31.60
2018-09-18T12:12:02.367Z,32.23
2018-09-18T12:16:59.971Z,31.82
2018-09-18T12:21:57.523Z,31.42
2018-09-18T12:26:55.123Z,31.34
2018-09-18T12:31:52.633Z,31.09
2018-09-18T12:36:50.457Z,31.09
2018-09-18T12:41:50.767Z,31.18
2018-09-18T12:46:48.893Z,30.92
2018-09-18T12:51:46.638Z,31.26
2018-09-18T12:56:44.182Z,31.25
2018-09-18T13:06:44.847Z,31.30
2018-09-18T13:11:42.286Z,31.76
2018-09-18T13:16:39.779Z,31.60
2018-09-18T13:21:37.279Z,31.78
2018-09-18T13:26:34.703Z,32.15
2018-09-18T13:31:32.141Z,32.57
2018-09-18T13:36:29.598Z,32.13
2018-09-18T13:41:27.000Z,31.92
2018-09-18T13:46:24.438Z,32.05
2018-09-18T13:51:21.887Z,31.71
2018-09-18T13:56:19.425Z,31.63
2018-09-18T14:01:17.171Z,31.54
2018-09-18T14:06:14.582Z,31.68
2018-09-18T14:11:12.035Z,31.61
2018-09-18T14:16:09.437Z,31.75
2018-09-18T14:21:07.475Z,32.10
2018-09-18T14:26:04.908Z,32.10
2018-09-18T14:31:02.401Z,32.13
2018-09-18T14:35:59.796Z,32.00
2018-09-18T14:40:57.241Z,31.91
2018-09-18T14:45:54.649Z,32.16
2018-09-18T14:50:52.060Z,31.75
2018-09-18T14:55:49.499Z,31.59
2018-09-18T15:00:46.917Z,31.63
2018-09-18T15:05:44.377Z,31.69
2018-09-18T15:10:41.887Z,31.91
2018-09-18T15:15:39.355Z,31.91
2018-09-18T15:20:36.768Z,31.46
2018-09-18T15:25:34.176Z,31.25
2018-09-18T15:30:31.603Z,31.50
2018-09-18T15:35:30.098Z,31.41
2018-09-18T15:40:28.572Z,31.23
2018-09-18T15:45:26.083Z,31.09
2018-09-18T15:50:23.487Z,31.10
2018-09-18T15:55:21.019Z,31.04
2018-09-18T16:00:18.374Z,30.93
2018-09-18T16:05:15.782Z,30.83
2018-09-18T16:10:14.339Z,30.75
2018-09-18T16:15:11.827Z,30.68
2018-09-18T16:20:09.239Z,30.63
2018-09-18T16:25:06.755Z,30.69
2018-09-18T16:30:04.372Z,30.58
2018-09-18T16:35:01.865Z,30.55
2018-09-18T16:40:00.312Z,30.48
2018-09-18T16:44:57.728Z,30.28
2018-09-18T16:49:55.149Z,30.14
2018-09-18T16:54:52.613Z,29.97
2018-09-18T16:59:50.056Z,29.67
2018-09-18T17:04:47.472Z,29.39
2018-09-18T17:09:49.336Z,29.07
2018-09-18T17:14:46.792Z,28.90
2018-09-18T17:19:44.315Z,28.63
2018-09-18T17:24:41.776Z,28.39
2018-09-18T17:29:39.180Z,28.13
2018-09-18T17:34:36.603Z,28.07
2018-09-18T17:39:37.582Z,27.98
2018-09-18T17:44:35.066Z,27.78
2018-09-18T17:49:32.495Z,27.63
2018-09-18T17:54:29.942Z,27.55
2018-09-18T17:59:27.377Z,27.36
2018-09-18T18:04:24.787Z,27.32
2018-09-18T18:09:41.344Z,27.25
2018-09-18T18:14:38.794Z,27.11
2018-09-18T18:19:36.211Z,26.91
2018-09-18T18:24:33.612Z,26.79
2018-09-18T18:29:31.052Z,26.60
2018-09-18T18:34:28.436Z,26.33
2018-09-18T18:39:38.812Z,26.18
2018-09-18T18:44:36.296Z,25.92
2018-09-18T18:49:35.798Z,26.03
2018-09-18T18:54:33.245Z,25.99
2018-09-18T18:59:30.605Z,25.86
2018-09-18T19:04:28.080Z,25.79
2018-09-18T19:09:35.595Z,25.78
2018-09-18T19:14:33.079Z,25.51
2018-09-18T19:19:30.576Z,25.41
2018-09-18T19:24:27.995Z,25.23
2018-09-18T19:29:25.424Z,25.07
2018-09-18T19:34:22.827Z,24.88
2018-09-18T19:39:28.599Z,24.71
2018-09-18T19:44:26.055Z,24.61
2018-09-18T19:49:23.467Z,24.39
2018-09-18T19:54:20.875Z,24.27
2018-09-18T19:59:18.279Z,24.18
2018-09-18T20:04:15.947Z,23.97
2018-09-18T20:09:15.707Z,23.77
2018-09-18T20:14:14.381Z,23.68
2018-09-18T20:19:11.946Z,23.64
2018-09-18T20:24:09.368Z,23.45
2018-09-18T20:29:07.123Z,23.39
2018-09-18T20:34:04.536Z,23.19
2018-09-18T20:39:02.013Z,23.11
2018-09-18T20:43:59.391Z,23.05
2018-09-18T20:48:56.798Z,22.97
2018-09-18T20:54:00.828Z,22.86
2018-09-18T20:58:58.213Z,22.55
2018-09-18T21:03:55.619Z,22.47
2018-09-18T21:08:52.999Z,22.36
2018-09-18T21:13:50.416Z,22.33
2018-09-18T21:18:47.806Z,22.12
2018-09-18T21:23:45.182Z,21.30
2018-09-18T21:28:42.566Z,20.74
2018-09-18T21:33:39.951Z,20.31
2018-09-18T21:38:37.347Z,19.95
2018-09-18T21:43:34.728Z,19.99
2018-09-18T21:48:32.128Z,19.89
2018-09-18T21:53:29.524Z,19.30
2018-09-18T21:58:26.912Z,19.35
2018-09-18T22:03:24.293Z,19.32
2018-09-18T22:08:21.667Z,19.20
2018-09-18T22:13:19.077Z,19.03
2018-09-18T22:18:16.454Z,18.75
2018-09-18T22:23:13.884Z,18.46
2018-09-18T22:28:11.356Z,18.35
2018-09-18T22:33:08.731Z,18.16
2018-09-18T22:38:06.212Z,18.64
2018-09-18T22:43:03.683Z,18.00
2018-09-18T22:48:01.052Z,17.91
2018-09-18T22:52:58.538Z,17.68
2018-09-18T22:57:55.956Z,17.46
2018-09-18T23:02:53.347Z,17.82
2018-09-18T23:07:50.755Z,17.53
2018-09-18T23:12:48.179Z,17.44
2018-09-18T23:17:45.572Z,17.81
2018-09-18T23:22:42.979Z,18.57
2018-09-18T23:27:40.393Z,18.60
2018-09-18T23:32:37.802Z,18.56
2018-09-18T23:37:35.212Z,18.62
2018-09-18T23:42:32.651Z,18.25
2018-09-18T23:47:30.097Z,17.66
2018-09-18T23:52:27.486Z,17.13
2018-09-18T23:57:24.890Z,16.98
